APJ127 RJBB-RJCM
Flight info
| Callsign | APJ127 |
|---|---|
| Flight time | 1h 51m |
| Altitude | 39000 |
| Route | SOVRI UPRAL UENOH KCC Y312 GTC Y124 MQE Y111 OZORA |
| Aircraft | A20N/M-SDE2E3FGHIRWXY/LB1 |
Departure
| Time | 2026-04-22 03:28 |
|---|---|
| Airport | Kansai International Airport (RJBB) |
Arrival
| Time | 2026-04-22 05:20 |
|---|---|
| Airport | Memanbetsu Airport (RJCM) |
| Time | Latitude | Longitude | Altitude | Speed | Heading |
|---|---|---|---|---|---|
| 2026-04-22 03:10 | 34.43927 | 135.23094 | 26 ft | 0 kts | 140° |
| 2026-04-22 03:19 | 34.43933 | 135.23088 | 50 ft | 2 kts | 139° |
| 2026-04-22 03:19 | 34.43943 | 135.23077 | 26 ft | 2 kts | 140° |
| 2026-04-22 03:19 | 34.43954 | 135.23067 | 26 ft | 2 kts | 141° |
| 2026-04-22 03:20 | 34.43965 | 135.23056 | 27 ft | 2 kts | 141° |
| 2026-04-22 03:20 | 34.43976 | 135.23045 | 28 ft | 2 kts | 140° |
| 2026-04-22 03:20 | 34.43986 | 135.23035 | 29 ft | 2 kts | 137° |
| 2026-04-22 03:20 | 34.43994 | 135.23025 | 29 ft | 1 kts | 121° |
| 2026-04-22 03:21 | 34.43997 | 135.23015 | 30 ft | 1 kts | 81° |
| 2026-04-22 03:21 | 34.43995 | 135.23008 | 30 ft | 1 kts | 62° |
| 2026-04-22 03:21 | 34.43993 | 135.23002 | 30 ft | 1 kts | 56° |
| 2026-04-22 03:21 | 34.43991 | 135.22999 | 30 ft | 0 kts | 54° |
| 2026-04-22 03:23 | 34.43996 | 135.23007 | 30 ft | 3 kts | 54° |
| 2026-04-22 03:23 | 34.44017 | 135.23040 | 30 ft | 7 kts | 51° |
| 2026-04-22 03:24 | 34.44058 | 135.23101 | 30 ft | 12 kts | 50° |
| 2026-04-22 03:24 | 34.44118 | 135.23192 | 29 ft | 16 kts | 52° |
| 2026-04-22 03:24 | 34.44193 | 135.23307 | 31 ft | 18 kts | 50° |
| 2026-04-22 03:24 | 34.44279 | 135.23348 | 32 ft | 14 kts | 312° |
| 2026-04-22 03:25 | 34.44357 | 135.23260 | 32 ft | 16 kts | 321° |
| 2026-04-22 03:25 | 34.44422 | 135.23296 | 33 ft | 12 kts | 53° |
| 2026-04-22 03:25 | 34.44480 | 135.23384 | 35 ft | 14 kts | 49° |
| 2026-04-22 03:25 | 34.44547 | 135.23478 | 36 ft | 16 kts | 55° |
| 2026-04-22 03:26 | 34.44624 | 135.23596 | 36 ft | 20 kts | 50° |
| 2026-04-22 03:26 | 34.44716 | 135.23731 | 36 ft | 22 kts | 51° |
| 2026-04-22 03:26 | 34.44825 | 135.23890 | 33 ft | 26 kts | 50° |
| 2026-04-22 03:26 | 34.44936 | 135.24055 | 32 ft | 25 kts | 51° |
| 2026-04-22 03:27 | 34.45059 | 135.24041 | 32 ft | 19 kts | 319° |
| 2026-04-22 03:27 | 34.45079 | 135.23927 | 35 ft | 11 kts | 233° |
| 2026-04-22 03:27 | 34.45076 | 135.23923 | 35 ft | 0 kts | 231° |
| 2026-04-22 03:27 | 34.45057 | 135.23894 | 36 ft | 18 kts | 231° |
| 2026-04-22 03:28 | 34.44835 | 135.23562 | 39 ft | 82 kts | 231° |
| 2026-04-22 03:28 | 34.44340 | 135.22825 | 32 ft | 142 kts | 231° |
| 2026-04-22 03:28 | 34.43651 | 135.21811 | 388 ft | 155 kts | 231° |
| 2026-04-22 03:28 | 34.42940 | 135.20861 | 1046 ft | 155 kts | 229° |
| 2026-04-22 03:29 | 34.42442 | 135.19714 | 1722 ft | 160 kts | 259° |
| 2026-04-22 03:29 | 34.42694 | 135.18301 | 2003 ft | 194 kts | 302° |
| 2026-04-22 03:29 | 34.43884 | 135.17352 | 2295 ft | 226 kts | 348° |
| 2026-04-22 03:29 | 34.45478 | 135.17623 | 2772 ft | 242 kts | 31° |
| 2026-04-22 03:30 | 34.46603 | 135.19080 | 3542 ft | 239 kts | 71° |
| 2026-04-22 03:30 | 34.46738 | 135.21027 | 4369 ft | 234 kts | 109° |
| 2026-04-22 03:30 | 34.46101 | 135.22828 | 5220 ft | 234 kts | 119° |
| 2026-04-22 03:30 | 34.45343 | 135.24623 | 5899 ft | 248 kts | 121° |
| 2026-04-22 03:31 | 34.44497 | 135.26552 | 6406 ft | 268 kts | 118° |
| 2026-04-22 03:31 | 34.43877 | 135.28729 | 7068 ft | 281 kts | 99° |
| 2026-04-22 03:31 | 34.43884 | 135.31131 | 7834 ft | 290 kts | 87° |
| 2026-04-22 03:31 | 34.44139 | 135.33585 | 8618 ft | 297 kts | 83° |
| 2026-04-22 03:32 | 34.44511 | 135.36079 | 9424 ft | 304 kts | 80° |
| 2026-04-22 03:32 | 34.44947 | 135.38617 | 10161 ft | 312 kts | 79° |
| 2026-04-22 03:32 | 34.45421 | 135.41268 | 10525 ft | 332 kts | 79° |
| 2026-04-22 03:32 | 34.45916 | 135.44056 | 10845 ft | 354 kts | 79° |
| 2026-04-22 03:33 | 34.46435 | 135.47041 | 11426 ft | 367 kts | 79° |
| 2026-04-22 03:33 | 34.46956 | 135.50103 | 12160 ft | 374 kts | 79° |
| 2026-04-22 03:33 | 34.47478 | 135.53219 | 12873 ft | 381 kts | 80° |
| 2026-04-22 03:33 | 34.48004 | 135.56403 | 13564 ft | 388 kts | 79° |
| 2026-04-22 03:34 | 34.48535 | 135.59631 | 14200 ft | 394 kts | 79° |
| 2026-04-22 03:34 | 34.49071 | 135.62910 | 14813 ft | 399 kts | 79° |
| 2026-04-22 03:34 | 34.49760 | 135.66194 | 15425 ft | 406 kts | 71° |
| 2026-04-22 03:34 | 34.50892 | 135.69350 | 16029 ft | 411 kts | 59° |
| 2026-04-22 03:35 | 34.52394 | 135.72316 | 16681 ft | 416 kts | 54° |
| 2026-04-22 03:35 | 34.54059 | 135.75202 | 17377 ft | 420 kts | 52° |
| 2026-04-22 03:35 | 34.55827 | 135.78061 | 17968 ft | 427 kts | 50° |
| 2026-04-22 03:35 | 34.57655 | 135.80932 | 18499 ft | 432 kts | 50° |
| 2026-04-22 03:36 | 34.59507 | 135.83824 | 18994 ft | 436 kts | 49° |
| 2026-04-22 03:36 | 34.61368 | 135.86746 | 19502 ft | 440 kts | 50° |
| 2026-04-22 03:36 | 34.63239 | 135.89711 | 20029 ft | 444 kts | 50° |
| 2026-04-22 03:36 | 34.65097 | 135.92679 | 20526 ft | 448 kts | 50° |
| 2026-04-22 03:37 | 34.66984 | 135.95711 | 21012 ft | 451 kts | 50° |
| 2026-04-22 03:37 | 34.68877 | 135.98763 | 21526 ft | 453 kts | 50° |
| 2026-04-22 03:37 | 34.70772 | 136.01830 | 22000 ft | 456 kts | 50° |
| 2026-04-22 03:37 | 34.72686 | 136.04928 | 22456 ft | 460 kts | 50° |
| 2026-04-22 03:38 | 34.74617 | 136.08053 | 22900 ft | 464 kts | 50° |
| 2026-04-22 03:38 | 34.76564 | 136.11204 | 23328 ft | 467 kts | 50° |
| 2026-04-22 03:38 | 34.78523 | 136.14378 | 23747 ft | 470 kts | 50° |
| 2026-04-22 03:38 | 34.79854 | 136.16535 | 23991 ft | 473 kts | 50° |
| 2026-04-22 03:39 | 34.81833 | 136.19746 | 24342 ft | 476 kts | 49° |
| 2026-04-22 03:39 | 34.83799 | 136.22934 | 24693 ft | 478 kts | 49° |
| 2026-04-22 03:39 | 34.85817 | 136.26170 | 25038 ft | 481 kts | 49° |
| 2026-04-22 03:39 | 34.87878 | 136.29452 | 25406 ft | 484 kts | 49° |
| 2026-04-22 03:40 | 34.89868 | 136.32613 | 25748 ft | 487 kts | 49° |
| 2026-04-22 03:40 | 34.91969 | 136.35949 | 26095 ft | 490 kts | 48° |
| 2026-04-22 03:40 | 34.94018 | 136.39212 | 26452 ft | 492 kts | 48° |
| 2026-04-22 03:40 | 34.96104 | 136.42541 | 26805 ft | 495 kts | 48° |
| 2026-04-22 03:41 | 34.98201 | 136.45888 | 27065 ft | 498 kts | 48° |
| 2026-04-22 03:41 | 35.00302 | 136.49245 | 27381 ft | 500 kts | 48° |
| 2026-04-22 03:41 | 35.02422 | 136.52638 | 27697 ft | 503 kts | 48° |
| 2026-04-22 03:41 | 35.04541 | 136.56033 | 28007 ft | 505 kts | 48° |
| 2026-04-22 03:42 | 35.06673 | 136.59454 | 28292 ft | 507 kts | 48° |
| 2026-04-22 03:42 | 35.08814 | 136.62892 | 28587 ft | 510 kts | 48° |
| 2026-04-22 03:42 | 35.10965 | 136.66349 | 28870 ft | 512 kts | 48° |
| 2026-04-22 03:42 | 35.13123 | 136.69822 | 29156 ft | 514 kts | 48° |
| 2026-04-22 03:43 | 35.15297 | 136.73322 | 29433 ft | 516 kts | 48° |
| 2026-04-22 03:43 | 35.17473 | 136.76830 | 29703 ft | 519 kts | 48° |
| 2026-04-22 03:43 | 35.19656 | 136.80354 | 29985 ft | 521 kts | 48° |
| 2026-04-22 03:43 | 35.21845 | 136.83890 | 30286 ft | 521 kts | 48° |
| 2026-04-22 03:44 | 35.24002 | 136.87378 | 30608 ft | 520 kts | 47° |
| 2026-04-22 03:44 | 35.26388 | 136.90658 | 30925 ft | 512 kts | 37° |
| 2026-04-22 03:44 | 35.29104 | 136.93391 | 31248 ft | 503 kts | 29° |
| 2026-04-22 03:44 | 35.31941 | 136.95884 | 31604 ft | 500 kts | 27° |
| 2026-04-22 03:45 | 35.34825 | 136.98276 | 31938 ft | 498 kts | 25° |
| 2026-04-22 03:45 | 35.37719 | 137.00604 | 32253 ft | 497 kts | 25° |
| 2026-04-22 03:45 | 35.40611 | 137.02904 | 32563 ft | 496 kts | 24° |
| 2026-04-22 03:45 | 35.43515 | 137.05211 | 32885 ft | 495 kts | 24° |
| 2026-04-22 03:46 | 35.46405 | 137.07517 | 33185 ft | 495 kts | 24° |
| 2026-04-22 03:46 | 35.49282 | 137.09824 | 33483 ft | 495 kts | 24° |
| 2026-04-22 03:46 | 35.52164 | 137.12144 | 33765 ft | 495 kts | 24° |
| 2026-04-22 03:46 | 35.55044 | 137.14472 | 34060 ft | 494 kts | 24° |
| 2026-04-22 03:47 | 35.57915 | 137.16798 | 34274 ft | 495 kts | 24° |
| 2026-04-22 03:47 | 35.60796 | 137.19134 | 34481 ft | 495 kts | 24° |
| 2026-04-22 03:47 | 35.63659 | 137.21462 | 34756 ft | 494 kts | 24° |
| 2026-04-22 03:47 | 35.66497 | 137.23769 | 34950 ft | 494 kts | 23° |
| 2026-04-22 03:48 | 35.69364 | 137.26101 | 35066 ft | 496 kts | 23° |
| 2026-04-22 03:48 | 35.72238 | 137.28441 | 35322 ft | 494 kts | 24° |
| 2026-04-22 03:48 | 35.75100 | 137.30775 | 35593 ft | 492 kts | 23° |
| 2026-04-22 03:48 | 35.77965 | 137.33111 | 35796 ft | 492 kts | 23° |
| 2026-04-22 03:49 | 35.80813 | 137.35435 | 35971 ft | 492 kts | 23° |
| 2026-04-22 03:49 | 35.83653 | 137.37757 | 36290 ft | 488 kts | 23° |
| 2026-04-22 03:49 | 35.86487 | 137.40074 | 36417 ft | 489 kts | 23° |
| 2026-04-22 03:49 | 35.89328 | 137.42395 | 36569 ft | 490 kts | 22° |
| 2026-04-22 03:50 | 35.92173 | 137.44720 | 36741 ft | 490 kts | 22° |
| 2026-04-22 03:50 | 35.95015 | 137.47047 | 36925 ft | 490 kts | 22° |
| 2026-04-22 03:50 | 35.97850 | 137.49372 | 37060 ft | 491 kts | 22° |
| 2026-04-22 03:50 | 36.00696 | 137.51708 | 37228 ft | 491 kts | 22° |
| 2026-04-22 03:51 | 36.03536 | 137.54043 | 37458 ft | 489 kts | 22° |
| 2026-04-22 03:51 | 36.06376 | 137.56381 | 37654 ft | 489 kts | 22° |
| 2026-04-22 03:51 | 36.09205 | 137.58710 | 37831 ft | 488 kts | 22° |
| 2026-04-22 03:51 | 36.12032 | 137.61038 | 38015 ft | 488 kts | 22° |
| 2026-04-22 03:52 | 36.14820 | 137.63335 | 38168 ft | 488 kts | 22° |
| 2026-04-22 03:52 | 36.17675 | 137.65690 | 38309 ft | 488 kts | 21° |
| 2026-04-22 03:52 | 36.23297 | 137.70335 | 38428 ft | 489 kts | 22° |
| 2026-04-22 03:53 | 36.28956 | 137.75023 | 38706 ft | 488 kts | 22° |
| 2026-04-22 03:53 | 36.34618 | 137.79721 | 38819 ft | 489 kts | 22° |
| 2026-04-22 03:54 | 36.40277 | 137.84424 | 38958 ft | 489 kts | 22° |
| 2026-04-22 03:54 | 36.45919 | 137.89118 | 39003 ft | 491 kts | 22° |
| 2026-04-22 03:55 | 36.51605 | 137.93784 | 39000 ft | 489 kts | 21° |
| 2026-04-22 03:55 | 36.57328 | 137.98362 | 38998 ft | 489 kts | 21° |
| 2026-04-22 03:56 | 36.63054 | 138.02934 | 38999 ft | 489 kts | 21° |
| 2026-04-22 03:56 | 36.68780 | 138.07529 | 38998 ft | 489 kts | 21° |
| 2026-04-22 03:57 | 36.74491 | 138.12131 | 38995 ft | 489 kts | 21° |
| 2026-04-22 03:57 | 36.80209 | 138.16751 | 38996 ft | 490 kts | 20° |
| 2026-04-22 03:58 | 36.85899 | 138.21357 | 39005 ft | 490 kts | 20° |
| 2026-04-22 03:58 | 36.91623 | 138.25995 | 39010 ft | 490 kts | 20° |
| 2026-04-22 03:59 | 36.97342 | 138.30640 | 39014 ft | 491 kts | 20° |
| 2026-04-22 03:59 | 37.03074 | 138.35303 | 39010 ft | 491 kts | 20° |
| 2026-04-22 04:00 | 37.08804 | 138.39973 | 39012 ft | 491 kts | 20° |
| 2026-04-22 04:00 | 37.14525 | 138.44646 | 39015 ft | 491 kts | 20° |
| 2026-04-22 04:01 | 37.20253 | 138.49332 | 39015 ft | 492 kts | 20° |
| 2026-04-22 04:01 | 37.25981 | 138.54027 | 39011 ft | 492 kts | 20° |
| 2026-04-22 04:02 | 37.31718 | 138.58706 | 39015 ft | 492 kts | 20° |
| 2026-04-22 04:02 | 37.37454 | 138.63380 | 39018 ft | 491 kts | 20° |
| 2026-04-22 04:03 | 37.43184 | 138.68057 | 39007 ft | 491 kts | 20° |
| 2026-04-22 04:03 | 37.48869 | 138.72710 | 39007 ft | 490 kts | 19° |
| 2026-04-22 04:04 | 37.54593 | 138.77405 | 38998 ft | 491 kts | 20° |
| 2026-04-22 04:04 | 37.60321 | 138.82108 | 39006 ft | 491 kts | 19° |
| 2026-04-22 04:05 | 37.66039 | 138.86814 | 38997 ft | 491 kts | 19° |
| 2026-04-22 04:05 | 37.71771 | 138.91541 | 38993 ft | 491 kts | 19° |
| 2026-04-22 04:06 | 37.77500 | 138.96274 | 38982 ft | 492 kts | 19° |
| 2026-04-22 04:06 | 37.83236 | 139.01020 | 38975 ft | 493 kts | 19° |
| 2026-04-22 04:07 | 37.88973 | 139.05776 | 38970 ft | 494 kts | 19° |
| 2026-04-22 04:07 | 37.94668 | 139.10605 | 38971 ft | 503 kts | 25° |
| 2026-04-22 04:08 | 37.97318 | 139.13581 | 38974 ft | 514 kts | 32° |
| 2026-04-22 04:08 | 37.99885 | 139.16769 | 38971 ft | 518 kts | 33° |
| 2026-04-22 04:08 | 38.04912 | 139.23388 | 38975 ft | 522 kts | 35° |
| 2026-04-22 04:09 | 38.09907 | 139.30120 | 38973 ft | 523 kts | 35° |
| 2026-04-22 04:09 | 38.14905 | 139.36844 | 38973 ft | 523 kts | 35° |
| 2026-04-22 04:10 | 38.19916 | 139.43559 | 38975 ft | 523 kts | 35° |
| 2026-04-22 04:10 | 38.24902 | 139.50241 | 38977 ft | 523 kts | 35° |
| 2026-04-22 04:11 | 38.29913 | 139.56967 | 38974 ft | 523 kts | 35° |
| 2026-04-22 04:11 | 38.34918 | 139.63703 | 38968 ft | 523 kts | 35° |
| 2026-04-22 04:12 | 38.39907 | 139.70432 | 38968 ft | 522 kts | 35° |
| 2026-04-22 04:12 | 38.44894 | 139.77173 | 38964 ft | 522 kts | 35° |
| 2026-04-22 04:13 | 38.49876 | 139.83922 | 38949 ft | 522 kts | 35° |
| 2026-04-22 04:13 | 38.54855 | 139.90678 | 38945 ft | 523 kts | 35° |
| 2026-04-22 04:14 | 38.59844 | 139.97469 | 38945 ft | 522 kts | 36° |
| 2026-04-22 04:14 | 38.64808 | 140.04243 | 38942 ft | 521 kts | 35° |
| 2026-04-22 04:15 | 38.69740 | 140.10978 | 38941 ft | 522 kts | 36° |
| 2026-04-22 04:15 | 38.74699 | 140.17768 | 38936 ft | 522 kts | 36° |
| 2026-04-22 04:16 | 38.82124 | 140.27970 | 38926 ft | 521 kts | 36° |
| 2026-04-22 04:17 | 38.87028 | 140.34839 | 38926 ft | 523 kts | 37° |
| 2026-04-22 04:17 | 38.91884 | 140.41800 | 38920 ft | 523 kts | 37° |
| 2026-04-22 04:18 | 38.96726 | 140.48771 | 38924 ft | 523 kts | 37° |
| 2026-04-22 04:18 | 39.01591 | 140.55763 | 38895 ft | 524 kts | 37° |
| 2026-04-22 04:19 | 39.06534 | 140.62638 | 38904 ft | 523 kts | 36° |
| 2026-04-22 04:19 | 39.11500 | 140.69400 | 38909 ft | 523 kts | 36° |
| 2026-04-22 04:20 | 39.16493 | 140.76218 | 38900 ft | 523 kts | 36° |
| 2026-04-22 04:20 | 39.21480 | 140.83065 | 38888 ft | 523 kts | 36° |
| 2026-04-22 04:21 | 39.26452 | 140.89922 | 38876 ft | 523 kts | 36° |
| 2026-04-22 04:21 | 39.31385 | 140.96746 | 38869 ft | 523 kts | 37° |
| 2026-04-22 04:22 | 39.36344 | 141.03617 | 38863 ft | 523 kts | 37° |
| 2026-04-22 04:22 | 39.41312 | 141.10515 | 38859 ft | 524 kts | 37° |
| 2026-04-22 04:23 | 39.45857 | 141.18047 | 38857 ft | 534 kts | 46° |
| 2026-04-22 04:23 | 39.50139 | 141.25942 | 38859 ft | 536 kts | 47° |
| 2026-04-22 04:24 | 39.54350 | 141.33906 | 38858 ft | 535 kts | 48° |
| 2026-04-22 04:24 | 39.58559 | 141.41875 | 38857 ft | 535 kts | 47° |
| 2026-04-22 04:25 | 39.62773 | 141.49832 | 38848 ft | 535 kts | 48° |
| 2026-04-22 04:25 | 39.66949 | 141.57731 | 38835 ft | 533 kts | 48° |
| 2026-04-22 04:26 | 39.71137 | 141.65670 | 38833 ft | 532 kts | 48° |
| 2026-04-22 04:26 | 39.75321 | 141.73616 | 38818 ft | 533 kts | 48° |
| 2026-04-22 04:27 | 39.79505 | 141.81584 | 38816 ft | 535 kts | 49° |
| 2026-04-22 04:27 | 39.82994 | 141.88247 | 38810 ft | 536 kts | 49° |
| 2026-04-22 04:28 | 39.87205 | 141.96280 | 38810 ft | 537 kts | 48° |
| 2026-04-22 04:28 | 39.91525 | 142.04236 | 38798 ft | 538 kts | 47° |
| 2026-04-22 04:29 | 39.95895 | 142.12180 | 38807 ft | 540 kts | 47° |
| 2026-04-22 04:29 | 40.00275 | 142.20178 | 38799 ft | 543 kts | 47° |
| 2026-04-22 04:30 | 40.04616 | 142.28157 | 38800 ft | 542 kts | 47° |
| 2026-04-22 04:30 | 40.08969 | 142.36191 | 38798 ft | 541 kts | 47° |
| 2026-04-22 04:31 | 40.13301 | 142.44206 | 38802 ft | 540 kts | 48° |
| 2026-04-22 04:31 | 40.17628 | 142.52230 | 38805 ft | 539 kts | 48° |
| 2026-04-22 04:32 | 40.21944 | 142.60251 | 38803 ft | 538 kts | 48° |
| 2026-04-22 04:32 | 40.26244 | 142.68263 | 38804 ft | 538 kts | 48° |
| 2026-04-22 04:33 | 40.30543 | 142.76294 | 38808 ft | 538 kts | 48° |
| 2026-04-22 04:33 | 40.34838 | 142.84338 | 38798 ft | 538 kts | 48° |
| 2026-04-22 04:34 | 40.39129 | 142.92395 | 38796 ft | 539 kts | 49° |
| 2026-04-22 04:34 | 40.43389 | 143.00415 | 38801 ft | 539 kts | 49° |
| 2026-04-22 04:35 | 40.47669 | 143.08494 | 38801 ft | 540 kts | 49° |
| 2026-04-22 04:35 | 40.51953 | 143.16601 | 38799 ft | 540 kts | 49° |
| 2026-04-22 04:36 | 40.56382 | 143.24506 | 38797 ft | 529 kts | 38° |
| 2026-04-22 04:36 | 40.59083 | 143.27680 | 38799 ft | 512 kts | 25° |
| 2026-04-22 04:36 | 40.62087 | 143.30012 | 38794 ft | 491 kts | 11° |
| 2026-04-22 04:37 | 40.68409 | 143.32988 | 38754 ft | 478 kts | 2° |
| 2026-04-22 04:37 | 40.71546 | 143.34234 | 38779 ft | 463 kts | 1° |
| 2026-04-22 04:37 | 40.74590 | 143.35403 | 38796 ft | 449 kts | 0° |
| 2026-04-22 04:38 | 40.80540 | 143.37632 | 38789 ft | 442 kts | 360° |
| 2026-04-22 04:38 | 40.86466 | 143.39862 | 38784 ft | 444 kts | 0° |
| 2026-04-22 04:39 | 40.92411 | 143.42153 | 38782 ft | 445 kts | 0° |
| 2026-04-22 04:39 | 40.98324 | 143.44466 | 38778 ft | 446 kts | 1° |
| 2026-04-22 04:40 | 41.04280 | 143.46805 | 38778 ft | 446 kts | 1° |
| 2026-04-22 04:40 | 41.10241 | 143.49150 | 38775 ft | 447 kts | 1° |
| 2026-04-22 04:41 | 41.16217 | 143.51503 | 38771 ft | 447 kts | 1° |
| 2026-04-22 04:41 | 41.22185 | 143.53855 | 38777 ft | 448 kts | 1° |
| 2026-04-22 04:42 | 41.28136 | 143.56206 | 38777 ft | 449 kts | 1° |
| 2026-04-22 04:42 | 41.34123 | 143.58574 | 38774 ft | 450 kts | 1° |
| 2026-04-22 04:43 | 41.40132 | 143.60957 | 38772 ft | 451 kts | 1° |
| 2026-04-22 04:43 | 41.46154 | 143.63350 | 38772 ft | 452 kts | 1° |
| 2026-04-22 04:44 | 41.52184 | 143.65752 | 38774 ft | 452 kts | 2° |
| 2026-04-22 04:44 | 41.58223 | 143.68161 | 38765 ft | 453 kts | 2° |
| 2026-04-22 04:45 | 41.64269 | 143.70578 | 38762 ft | 454 kts | 2° |
| 2026-04-22 04:45 | 41.70322 | 143.73002 | 38762 ft | 454 kts | 2° |
| 2026-04-22 04:46 | 41.76369 | 143.75424 | 38759 ft | 454 kts | 2° |
| 2026-04-22 04:46 | 41.82394 | 143.77839 | 38755 ft | 454 kts | 2° |
| 2026-04-22 04:47 | 41.88446 | 143.80271 | 38753 ft | 454 kts | 3° |
| 2026-04-22 04:47 | 41.94512 | 143.82712 | 38747 ft | 455 kts | 3° |
| 2026-04-22 04:48 | 42.00593 | 143.85165 | 38745 ft | 456 kts | 3° |
| 2026-04-22 04:48 | 42.06689 | 143.87630 | 38738 ft | 457 kts | 3° |
| 2026-04-22 04:49 | 42.12782 | 143.90099 | 38729 ft | 457 kts | 3° |
| 2026-04-22 04:49 | 42.18838 | 143.92558 | 38719 ft | 458 kts | 3° |
| 2026-04-22 04:50 | 42.24947 | 143.95041 | 38721 ft | 459 kts | 4° |
| 2026-04-22 04:50 | 42.31073 | 143.97534 | 38562 ft | 463 kts | 4° |
| 2026-04-22 04:50 | 42.34175 | 143.98782 | 37891 ft | 467 kts | 3° |
| 2026-04-22 04:51 | 42.37312 | 144.00032 | 36993 ft | 473 kts | 2° |
| 2026-04-22 04:51 | 42.40484 | 144.01294 | 36182 ft | 477 kts | 2° |
| 2026-04-22 04:51 | 42.43679 | 144.02569 | 35449 ft | 480 kts | 1° |
| 2026-04-22 04:51 | 42.46889 | 144.03856 | 34760 ft | 482 kts | 1° |
| 2026-04-22 04:52 | 42.50107 | 144.05152 | 34104 ft | 483 kts | 0° |
| 2026-04-22 04:52 | 42.53325 | 144.06451 | 33420 ft | 483 kts | 360° |
| 2026-04-22 04:52 | 42.56549 | 144.07544 | 32628 ft | 474 kts | 355° |
| 2026-04-22 04:52 | 42.59782 | 144.08506 | 31786 ft | 476 kts | 355° |
| 2026-04-22 04:53 | 42.62987 | 144.09408 | 31011 ft | 477 kts | 354° |
| 2026-04-22 04:53 | 42.66234 | 144.10299 | 30355 ft | 475 kts | 354° |
| 2026-04-22 04:53 | 42.69465 | 144.11180 | 29788 ft | 472 kts | 354° |
| 2026-04-22 04:53 | 42.72672 | 144.12055 | 29146 ft | 468 kts | 354° |
| 2026-04-22 04:54 | 42.75850 | 144.12926 | 28559 ft | 463 kts | 354° |
| 2026-04-22 04:54 | 42.78986 | 144.13788 | 27995 ft | 458 kts | 354° |
| 2026-04-22 04:54 | 42.82097 | 144.14641 | 27431 ft | 453 kts | 354° |
| 2026-04-22 04:54 | 42.85176 | 144.15453 | 26868 ft | 448 kts | 354° |
| 2026-04-22 04:55 | 42.88224 | 144.16231 | 26323 ft | 443 kts | 354° |
| 2026-04-22 04:55 | 42.91243 | 144.16989 | 25797 ft | 439 kts | 354° |
| 2026-04-22 04:55 | 42.94235 | 144.17737 | 25265 ft | 435 kts | 354° |
| 2026-04-22 04:55 | 42.97200 | 144.18480 | 24747 ft | 431 kts | 354° |
| 2026-04-22 04:56 | 43.00140 | 144.19221 | 24235 ft | 428 kts | 354° |
| 2026-04-22 04:56 | 43.03034 | 144.19833 | 23731 ft | 409 kts | 346° |
| 2026-04-22 04:56 | 43.05810 | 144.19929 | 23220 ft | 402 kts | 345° |
| 2026-04-22 04:56 | 43.08593 | 144.20017 | 22586 ft | 398 kts | 345° |
| 2026-04-22 04:57 | 43.11350 | 144.20054 | 21938 ft | 395 kts | 345° |
| 2026-04-22 04:57 | 43.14086 | 144.20055 | 21307 ft | 392 kts | 345° |
| 2026-04-22 04:57 | 43.16802 | 144.20039 | 20707 ft | 389 kts | 345° |
| 2026-04-22 04:57 | 43.19499 | 144.20015 | 20110 ft | 387 kts | 345° |
| 2026-04-22 04:58 | 43.22183 | 144.19989 | 19523 ft | 384 kts | 346° |
| 2026-04-22 04:58 | 43.24854 | 144.19965 | 18932 ft | 383 kts | 346° |
| 2026-04-22 04:58 | 43.27513 | 144.19944 | 18362 ft | 381 kts | 346° |
| 2026-04-22 04:58 | 43.30161 | 144.19925 | 17746 ft | 380 kts | 347° |
| 2026-04-22 04:59 | 43.32798 | 144.19910 | 17108 ft | 377 kts | 347° |
| 2026-04-22 04:59 | 43.35411 | 144.19898 | 16518 ft | 374 kts | 347° |
| 2026-04-22 04:59 | 43.38012 | 144.19884 | 15932 ft | 371 kts | 347° |
| 2026-04-22 04:59 | 43.40555 | 144.19881 | 15706 ft | 359 kts | 347° |
| 2026-04-22 05:00 | 43.42977 | 144.19884 | 15535 ft | 346 kts | 347° |
| 2026-04-22 05:00 | 43.45343 | 144.19886 | 15361 ft | 334 kts | 346° |
| 2026-04-22 05:00 | 43.47629 | 144.19882 | 15190 ft | 321 kts | 345° |
| 2026-04-22 05:00 | 43.49815 | 144.19774 | 14888 ft | 312 kts | 342° |
| 2026-04-22 05:01 | 43.51975 | 144.19594 | 14426 ft | 310 kts | 342° |
| 2026-04-22 05:01 | 43.54129 | 144.19404 | 13946 ft | 310 kts | 342° |
| 2026-04-22 05:01 | 43.56277 | 144.19222 | 13512 ft | 308 kts | 342° |
| 2026-04-22 05:01 | 43.58412 | 144.19045 | 13092 ft | 306 kts | 343° |
| 2026-04-22 05:02 | 43.60530 | 144.18872 | 12679 ft | 304 kts | 343° |
| 2026-04-22 05:02 | 43.62631 | 144.18696 | 12273 ft | 301 kts | 343° |
| 2026-04-22 05:02 | 43.64713 | 144.18516 | 11865 ft | 298 kts | 343° |
| 2026-04-22 05:02 | 43.66780 | 144.18336 | 11452 ft | 296 kts | 344° |
| 2026-04-22 05:03 | 43.68828 | 144.18159 | 11026 ft | 295 kts | 344° |
| 2026-04-22 05:03 | 43.70871 | 144.17978 | 10602 ft | 293 kts | 345° |
| 2026-04-22 05:03 | 43.72897 | 144.17799 | 10275 ft | 288 kts | 345° |
| 2026-04-22 05:03 | 43.74863 | 144.17631 | 10136 ft | 278 kts | 345° |
| 2026-04-22 05:04 | 43.76754 | 144.17469 | 10015 ft | 267 kts | 345° |
| 2026-04-22 05:04 | 43.78569 | 144.17313 | 9892 ft | 256 kts | 345° |
| 2026-04-22 05:04 | 43.80310 | 144.17160 | 9720 ft | 248 kts | 345° |
| 2026-04-22 05:04 | 43.82017 | 144.17003 | 9448 ft | 244 kts | 345° |
| 2026-04-22 05:05 | 43.83711 | 144.16845 | 9092 ft | 244 kts | 345° |
| 2026-04-22 05:05 | 43.85383 | 144.16689 | 8751 ft | 243 kts | 346° |
| 2026-04-22 05:05 | 43.87069 | 144.16539 | 8393 ft | 243 kts | 347° |
| 2026-04-22 05:05 | 43.88752 | 144.16400 | 8049 ft | 244 kts | 349° |
| 2026-04-22 05:06 | 43.90455 | 144.16420 | 7727 ft | 243 kts | 350° |
| 2026-04-22 05:06 | 43.92040 | 144.15929 | 7341 ft | 225 kts | 318° |
| 2026-04-22 05:06 | 43.92939 | 144.14354 | 6950 ft | 205 kts | 279° |
| 2026-04-22 05:06 | 43.92773 | 144.12465 | 6576 ft | 203 kts | 240° |
| 2026-04-22 05:07 | 43.91694 | 144.11174 | 6274 ft | 210 kts | 216° |
| 2026-04-22 05:07 | 43.90426 | 144.10164 | 5944 ft | 209 kts | 218° |
| 2026-04-22 05:07 | 43.89261 | 144.08978 | 5609 ft | 207 kts | 225° |
| 2026-04-22 05:07 | 43.88246 | 144.07573 | 5262 ft | 205 kts | 233° |
| 2026-04-22 05:08 | 43.87392 | 144.06003 | 4950 ft | 203 kts | 239° |
| 2026-04-22 05:08 | 43.86693 | 144.04309 | 4617 ft | 202 kts | 245° |
| 2026-04-22 05:08 | 43.86141 | 144.02510 | 4269 ft | 204 kts | 251° |
| 2026-04-22 05:08 | 43.85738 | 144.00630 | 3931 ft | 203 kts | 257° |
| 2026-04-22 05:09 | 43.85472 | 143.98716 | 3684 ft | 201 kts | 260° |
| 2026-04-22 05:09 | 43.85262 | 143.96808 | 3638 ft | 201 kts | 261° |
| 2026-04-22 05:09 | 43.85054 | 143.94891 | 3643 ft | 202 kts | 261° |
| 2026-04-22 05:09 | 43.84846 | 143.92996 | 3643 ft | 201 kts | 261° |
| 2026-04-22 05:10 | 43.84637 | 143.91078 | 3643 ft | 201 kts | 261° |
| 2026-04-22 05:10 | 43.84426 | 143.89160 | 3640 ft | 201 kts | 261° |
| 2026-04-22 05:10 | 43.84213 | 143.87242 | 3645 ft | 201 kts | 261° |
| 2026-04-22 05:10 | 43.83877 | 143.85372 | 3639 ft | 201 kts | 242° |
| 2026-04-22 05:11 | 43.82861 | 143.84067 | 3817 ft | 207 kts | 207° |
| 2026-04-22 05:11 | 43.81409 | 143.83801 | 3959 ft | 220 kts | 179° |
| 2026-04-22 05:11 | 43.79881 | 143.84234 | 3983 ft | 227 kts | 172° |
| 2026-04-22 05:11 | 43.78362 | 143.84816 | 3937 ft | 225 kts | 171° |
| 2026-04-22 05:12 | 43.76859 | 143.85413 | 3653 ft | 224 kts | 170° |
| 2026-04-22 05:12 | 43.75367 | 143.86006 | 3510 ft | 222 kts | 170° |
| 2026-04-22 05:12 | 43.73929 | 143.86832 | 3480 ft | 230 kts | 147° |
| 2026-04-22 05:12 | 43.72934 | 143.88603 | 3510 ft | 242 kts | 114° |
| 2026-04-22 05:13 | 43.72590 | 143.90909 | 3500 ft | 247 kts | 100° |
| 2026-04-22 05:13 | 43.72358 | 143.93269 | 3482 ft | 248 kts | 100° |
| 2026-04-22 05:13 | 43.72145 | 143.95625 | 3481 ft | 247 kts | 99° |
| 2026-04-22 05:13 | 43.71940 | 143.97989 | 3485 ft | 248 kts | 99° |
| 2026-04-22 05:14 | 43.71732 | 144.00356 | 3492 ft | 248 kts | 99° |
| 2026-04-22 05:14 | 43.71521 | 144.02721 | 3496 ft | 248 kts | 100° |
| 2026-04-22 05:14 | 43.71313 | 144.05061 | 3518 ft | 237 kts | 99° |
| 2026-04-22 05:14 | 43.71116 | 144.07255 | 3505 ft | 226 kts | 99° |
| 2026-04-22 05:15 | 43.70920 | 144.09408 | 3494 ft | 225 kts | 99° |
| 2026-04-22 05:15 | 43.70727 | 144.11552 | 3484 ft | 225 kts | 100° |
| 2026-04-22 05:15 | 43.70584 | 144.13707 | 3490 ft | 225 kts | 90° |
| 2026-04-22 05:15 | 43.70958 | 144.15800 | 3495 ft | 226 kts | 57° |
| 2026-04-22 05:16 | 43.72007 | 144.17293 | 3455 ft | 217 kts | 26° |
| 2026-04-22 05:16 | 43.73370 | 144.17887 | 3123 ft | 202 kts | 353° |
| 2026-04-22 05:16 | 43.74773 | 144.17694 | 2665 ft | 206 kts | 345° |
| 2026-04-22 05:16 | 43.76215 | 144.17488 | 2311 ft | 207 kts | 350° |
| 2026-04-22 05:17 | 43.77618 | 144.17392 | 2040 ft | 198 kts | 351° |
| 2026-04-22 05:17 | 43.78964 | 144.17272 | 1787 ft | 188 kts | 351° |
| 2026-04-22 05:17 | 43.80218 | 144.17162 | 1564 ft | 171 kts | 350° |
| 2026-04-22 05:17 | 43.80988 | 144.17107 | 1398 ft | 164 kts | 350° |
| 2026-04-22 05:18 | 43.83145 | 144.17009 | 874 ft | 144 kts | 351° |
| 2026-04-22 05:18 | 43.84153 | 144.16893 | 721 ft | 147 kts | 351° |
| 2026-04-22 05:18 | 43.85185 | 144.16773 | 550 ft | 149 kts | 351° |
| 2026-04-22 05:19 | 43.86211 | 144.16635 | 356 ft | 150 kts | 350° |
| 2026-04-22 05:19 | 43.87250 | 144.16503 | 157 ft | 147 kts | 350° |
| 2026-04-22 05:19 | 43.88157 | 144.16380 | 128 ft | 108 kts | 354° |
| 2026-04-22 05:19 | 43.88724 | 144.16311 | 118 ft | 55 kts | 355° |
| 2026-04-22 05:20 | 43.89095 | 144.16250 | 113 ft | 47 kts | 353° |
| 2026-04-22 05:20 | 43.89158 | 144.16157 | 113 ft | 10 kts | 271° |
| 2026-04-22 05:20 | 43.89143 | 144.16059 | 113 ft | 12 kts | 237° |
| 2026-04-22 05:20 | 43.89061 | 144.16040 | 115 ft | 14 kts | 175° |
| 2026-04-22 05:21 | 43.88952 | 144.16053 | 115 ft | 17 kts | 174° |
| 2026-04-22 05:21 | 43.88823 | 144.16070 | 117 ft | 20 kts | 175° |
| 2026-04-22 05:21 | 43.88676 | 144.16089 | 117 ft | 22 kts | 174° |
| 2026-04-22 05:21 | 43.88514 | 144.16108 | 124 ft | 24 kts | 176° |
| 2026-04-22 05:22 | 43.88349 | 144.16131 | 123 ft | 23 kts | 172° |
| 2026-04-22 05:22 | 43.88194 | 144.16148 | 125 ft | 19 kts | 181° |
| 2026-04-22 05:22 | 43.88161 | 144.16084 | 125 ft | 8 kts | 264° |
| 2026-04-22 05:22 | 43.88155 | 144.16004 | 126 ft | 9 kts | 264° |
| 2026-04-22 05:23 | 43.88153 | 144.15973 | 124 ft | 0 kts | 264° |